sensor_id;sensor_type;location;lat;lon;timestamp;P1;durP1;ratioP1;P2;durP2;ratioP2
26820;SDS011;37186;51.394;5.454;2023-03-03T00:01:05;2.30;;;2.30;;
26820;SDS011;37186;51.394;5.454;2023-03-03T00:04:05;2.30;;;2.30;;
26820;SDS011;37186;51.394;5.454;2023-03-03T00:07:06;2.40;;;2.40;;
26820;SDS011;37186;51.394;5.454;2023-03-03T00:10:07;2.20;;;2.20;;
26820;SDS011;37186;51.394;5.454;2023-03-03T00:13:21;2.43;;;2.43;;
26820;SDS011;37186;51.394;5.454;2023-03-03T00:19:26;2.20;;;2.20;;
26820;SDS011;37186;51.394;5.454;2023-03-03T00:22:36;2.20;;;2.20;;
26820;SDS011;37186;51.394;5.454;2023-03-03T00:25:37;2.43;;;2.43;;
26820;SDS011;37186;51.394;5.454;2023-03-03T00:28:42;2.30;;;2.30;;
26820;SDS011;37186;51.394;5.454;2023-03-03T00:31:45;2.20;;;2.20;;
26820;SDS011;37186;51.394;5.454;2023-03-03T00:34:46;2.20;;;2.20;;
26820;SDS011;37186;51.394;5.454;2023-03-03T00:37:46;2.47;;;2.47;;
26820;SDS011;37186;51.394;5.454;2023-03-03T00:40:48;2.20;;;2.20;;
26820;SDS011;37186;51.394;5.454;2023-03-03T00:43:49;2.40;;;2.40;;
26820;SDS011;37186;51.394;5.454;2023-03-03T00:46:50;2.30;;;2.30;;
26820;SDS011;37186;51.394;5.454;2023-03-03T00:49:54;2.20;;;2.20;;
26820;SDS011;37186;51.394;5.454;2023-03-03T00:53:11;2.30;;;2.30;;
26820;SDS011;37186;51.394;5.454;2023-03-03T00:56:18;2.20;;;2.20;;
26820;SDS011;37186;51.394;5.454;2023-03-03T00:59:19;2.30;;;2.30;;
26820;SDS011;37186;51.394;5.454;2023-03-03T01:02:20;2.20;;;2.20;;
26820;SDS011;37186;51.394;5.454;2023-03-03T01:05:21;2.10;;;2.10;;
26820;SDS011;37186;51.394;5.454;2023-03-03T01:08:21;2.30;;;2.30;;
26820;SDS011;37186;51.394;5.454;2023-03-03T01:11:23;2.10;;;2.10;;
26820;SDS011;37186;51.394;5.454;2023-03-03T01:14:27;2.30;;;2.30;;
26820;SDS011;37186;51.394;5.454;2023-03-03T01:17:28;2.20;;;2.20;;
26820;SDS011;37186;51.394;5.454;2023-03-03T01:20:28;2.13;;;2.13;;
26820;SDS011;37186;51.394;5.454;2023-03-03T01:23:29;2.20;;;2.20;;
26820;SDS011;37186;51.394;5.454;2023-03-03T01:26:29;2.20;;;2.20;;
26820;SDS011;37186;51.394;5.454;2023-03-03T01:29:30;2.10;;;2.10;;
26820;SDS011;37186;51.394;5.454;2023-03-03T01:32:31;2.20;;;2.20;;
26820;SDS011;37186;51.394;5.454;2023-03-03T01:35:31;2.30;;;2.30;;
26820;SDS011;37186;51.394;5.454;2023-03-03T01:38:34;2.40;;;2.40;;
26820;SDS011;37186;51.394;5.454;2023-03-03T01:41:35;2.20;;;2.20;;
26820;SDS011;37186;51.394;5.454;2023-03-03T01:44:36;2.40;;;2.40;;
26820;SDS011;37186;51.394;5.454;2023-03-03T01:47:36;2.30;;;2.30;;
26820;SDS011;37186;51.394;5.454;2023-03-03T01:53:49;2.40;;;2.40;;
26820;SDS011;37186;51.394;5.454;2023-03-03T01:56:52;2.40;;;2.40;;
26820;SDS011;37186;51.394;5.454;2023-03-03T01:59:57;2.30;;;2.30;;
26820;SDS011;37186;51.394;5.454;2023-03-03T02:03:00;2.30;;;2.30;;
26820;SDS011;37186;51.394;5.454;2023-03-03T02:06:05;2.20;;;2.20;;
26820;SDS011;37186;51.394;5.454;2023-03-03T02:09:14;2.27;;;2.27;;
26820;SDS011;37186;51.394;5.454;2023-03-03T02:15:44;2.23;;;2.23;;
26820;SDS011;37186;51.394;5.454;2023-03-03T02:18:45;2.30;;;2.30;;
26820;SDS011;37186;51.394;5.454;2023-03-03T02:21:45;2.30;;;2.30;;
26820;SDS011;37186;51.394;5.454;2023-03-03T02:24:55;2.50;;;2.50;;
26820;SDS011;37186;51.394;5.454;2023-03-03T02:27:59;2.40;;;2.40;;
26820;SDS011;37186;51.394;5.454;2023-03-03T02:31:00;2.40;;;2.40;;
26820;SDS011;37186;51.394;5.454;2023-03-03T02:34:02;2.20;;;2.20;;
26820;SDS011;37186;51.394;5.454;2023-03-03T02:37:03;2.40;;;2.40;;
26820;SDS011;37186;51.394;5.454;2023-03-03T02:40:03;2.27;;;2.27;;
26820;SDS011;37186;51.394;5.454;2023-03-03T02:43:06;2.10;;;2.10;;
26820;SDS011;37186;51.394;5.454;2023-03-03T02:46:08;2.40;;;2.40;;
26820;SDS011;37186;51.394;5.454;2023-03-03T02:49:10;2.27;;;2.27;;
26820;SDS011;37186;51.394;5.454;2023-03-03T02:52:12;2.27;;;2.27;;
26820;SDS011;37186;51.394;5.454;2023-03-03T02:55:13;2.40;;;2.40;;
26820;SDS011;37186;51.394;5.454;2023-03-03T02:58:14;2.10;;;2.10;;
26820;SDS011;37186;51.394;5.454;2023-03-03T03:01:14;2.30;;;2.30;;
26820;SDS011;37186;51.394;5.454;2023-03-03T03:04:19;2.40;;;2.40;;
26820;SDS011;37186;51.394;5.454;2023-03-03T03:07:21;2.30;;;2.30;;
26820;SDS011;37186;51.394;5.454;2023-03-03T03:10:22;2.40;;;2.40;;
26820;SDS011;37186;51.394;5.454;2023-03-03T03:13:23;2.40;;;2.40;;
26820;SDS011;37186;51.394;5.454;2023-03-03T03:16:24;2.30;;;2.30;;
26820;SDS011;37186;51.394;5.454;2023-03-03T03:19:24;2.40;;;2.40;;
26820;SDS011;37186;51.394;5.454;2023-03-03T03:22:25;2.13;;;2.13;;
26820;SDS011;37186;51.394;5.454;2023-03-03T03:25:26;2.20;;;2.20;;
26820;SDS011;37186;51.394;5.454;2023-03-03T03:28:26;2.30;;;2.30;;
26820;SDS011;37186;51.394;5.454;2023-03-03T03:31:27;2.30;;;2.30;;
26820;SDS011;37186;51.394;5.454;2023-03-03T03:34:27;2.37;;;2.37;;
26820;SDS011;37186;51.394;5.454;2023-03-03T03:37:28;2.50;;;2.50;;
26820;SDS011;37186;51.394;5.454;2023-03-03T03:40:28;2.40;;;2.40;;
26820;SDS011;37186;51.394;5.454;2023-03-03T03:43:29;2.20;;;2.20;;
26820;SDS011;37186;51.394;5.454;2023-03-03T03:46:29;2.30;;;2.30;;
26820;SDS011;37186;51.394;5.454;2023-03-03T03:49:30;2.20;;;2.20;;
26820;SDS011;37186;51.394;5.454;2023-03-03T03:52:31;2.50;;;2.50;;
26820;SDS011;37186;51.394;5.454;2023-03-03T03:55:31;2.30;;;2.30;;
26820;SDS011;37186;51.394;5.454;2023-03-03T03:58:32;2.30;;;2.30;;
26820;SDS011;37186;51.394;5.454;2023-03-03T04:01:33;2.40;;;2.40;;
26820;SDS011;37186;51.394;5.454;2023-03-03T04:04:33;2.30;;;2.30;;
26820;SDS011;37186;51.394;5.454;2023-03-03T04:07:34;2.30;;;2.30;;
26820;SDS011;37186;51.394;5.454;2023-03-03T04:10:34;2.40;;;2.40;;
26820;SDS011;37186;51.394;5.454;2023-03-03T04:13:35;2.40;;;2.40;;
26820;SDS011;37186;51.394;5.454;2023-03-03T04:16:35;2.30;;;2.30;;
26820;SDS011;37186;51.394;5.454;2023-03-03T04:19:36;2.30;;;2.30;;
26820;SDS011;37186;51.394;5.454;2023-03-03T04:22:36;2.50;;;2.50;;
26820;SDS011;37186;51.394;5.454;2023-03-03T04:25:37;2.40;;;2.40;;
26820;SDS011;37186;51.394;5.454;2023-03-03T04:28:38;2.40;;;2.40;;
26820;SDS011;37186;51.394;5.454;2023-03-03T04:31:38;2.33;;;2.33;;
26820;SDS011;37186;51.394;5.454;2023-03-03T04:34:39;2.30;;;2.30;;
26820;SDS011;37186;51.394;5.454;2023-03-03T04:37:39;2.30;;;2.30;;
26820;SDS011;37186;51.394;5.454;2023-03-03T04:40:40;2.30;;;2.30;;
26820;SDS011;37186;51.394;5.454;2023-03-03T04:43:41;2.30;;;2.30;;
26820;SDS011;37186;51.394;5.454;2023-03-03T04:46:41;2.23;;;2.23;;
26820;SDS011;37186;51.394;5.454;2023-03-03T04:49:42;2.30;;;2.30;;
26820;SDS011;37186;51.394;5.454;2023-03-03T04:52:42;2.20;;;2.20;;
26820;SDS011;37186;51.394;5.454;2023-03-03T04:55:43;2.30;;;2.30;;
26820;SDS011;37186;51.394;5.454;2023-03-03T04:58:43;2.20;;;2.20;;
26820;SDS011;37186;51.394;5.454;2023-03-03T05:01:44;2.33;;;2.33;;
26820;SDS011;37186;51.394;5.454;2023-03-03T05:04:45;2.30;;;2.30;;
26820;SDS011;37186;51.394;5.454;2023-03-03T05:07:46;2.50;;;2.50;;
26820;SDS011;37186;51.394;5.454;2023-03-03T05:10:50;2.53;;;2.53;;
26820;SDS011;37186;51.394;5.454;2023-03-03T05:13:51;2.40;;;2.40;;
26820;SDS011;37186;51.394;5.454;2023-03-03T05:16:52;2.33;;;2.33;;
26820;SDS011;37186;51.394;5.454;2023-03-03T05:19:52;2.40;;;2.40;;
26820;SDS011;37186;51.394;5.454;2023-03-03T05:22:54;2.50;;;2.50;;
26820;SDS011;37186;51.394;5.454;2023-03-03T05:25:56;2.20;;;2.20;;
26820;SDS011;37186;51.394;5.454;2023-03-03T05:28:56;2.30;;;2.30;;
26820;SDS011;37186;51.394;5.454;2023-03-03T05:31:57;2.30;;;2.30;;
26820;SDS011;37186;51.394;5.454;2023-03-03T05:34:58;2.30;;;2.30;;
26820;SDS011;37186;51.394;5.454;2023-03-03T05:37:58;2.23;;;2.23;;
26820;SDS011;37186;51.394;5.454;2023-03-03T05:41:00;2.30;;;2.30;;
26820;SDS011;37186;51.394;5.454;2023-03-03T05:44:00;2.30;;;2.30;;
26820;SDS011;37186;51.394;5.454;2023-03-03T05:47:01;2.20;;;2.20;;
26820;SDS011;37186;51.394;5.454;2023-03-03T05:50:02;2.30;;;2.30;;
26820;SDS011;37186;51.394;5.454;2023-03-03T05:53:03;2.40;;;2.40;;
26820;SDS011;37186;51.394;5.454;2023-03-03T05:56:04;2.20;;;2.20;;
26820;SDS011;37186;51.394;5.454;2023-03-03T05:59:05;2.40;;;2.40;;
26820;SDS011;37186;51.394;5.454;2023-03-03T06:02:05;2.40;;;2.40;;
26820;SDS011;37186;51.394;5.454;2023-03-03T06:05:07;2.23;;;2.23;;
26820;SDS011;37186;51.394;5.454;2023-03-03T06:08:07;2.30;;;2.30;;
26820;SDS011;37186;51.394;5.454;2023-03-03T06:11:08;2.20;;;2.20;;
26820;SDS011;37186;51.394;5.454;2023-03-03T06:14:08;2.40;;;2.40;;
26820;SDS011;37186;51.394;5.454;2023-03-03T06:17:09;2.30;;;2.30;;
26820;SDS011;37186;51.394;5.454;2023-03-03T06:20:10;2.10;;;2.10;;
26820;SDS011;37186;51.394;5.454;2023-03-03T06:23:11;2.50;;;2.50;;
26820;SDS011;37186;51.394;5.454;2023-03-03T06:26:11;2.30;;;2.30;;
26820;SDS011;37186;51.394;5.454;2023-03-03T06:29:12;2.30;;;2.30;;
26820;SDS011;37186;51.394;5.454;2023-03-03T06:32:12;2.40;;;2.40;;
26820;SDS011;37186;51.394;5.454;2023-03-03T06:35:14;2.37;;;2.37;;
26820;SDS011;37186;51.394;5.454;2023-03-03T06:38:14;2.20;;;2.20;;
26820;SDS011;37186;51.394;5.454;2023-03-03T06:41:15;2.20;;;2.20;;
26820;SDS011;37186;51.394;5.454;2023-03-03T06:44:16;2.10;;;2.10;;
26820;SDS011;37186;51.394;5.454;2023-03-03T06:47:16;2.30;;;2.30;;
26820;SDS011;37186;51.394;5.454;2023-03-03T06:50:17;2.50;;;2.50;;
26820;SDS011;37186;51.394;5.454;2023-03-03T06:53:19;2.40;;;2.40;;
26820;SDS011;37186;51.394;5.454;2023-03-03T06:56:20;2.20;;;2.20;;
26820;SDS011;37186;51.394;5.454;2023-03-03T06:59:23;2.40;;;2.40;;
26820;SDS011;37186;51.394;5.454;2023-03-03T07:02:25;2.33;;;2.33;;
26820;SDS011;37186;51.394;5.454;2023-03-03T07:05:26;2.30;;;2.30;;
26820;SDS011;37186;51.394;5.454;2023-03-03T07:08:29;2.30;;;2.30;;
26820;SDS011;37186;51.394;5.454;2023-03-03T07:11:30;2.30;;;2.30;;
26820;SDS011;37186;51.394;5.454;2023-03-03T07:14:32;2.10;;;2.10;;
26820;SDS011;37186;51.394;5.454;2023-03-03T07:17:41;2.20;;;2.20;;
26820;SDS011;37186;51.394;5.454;2023-03-03T07:20:44;2.33;;;2.33;;
26820;SDS011;37186;51.394;5.454;2023-03-03T07:23:46;2.40;;;2.40;;
26820;SDS011;37186;51.394;5.454;2023-03-03T07:26:48;2.37;;;2.37;;
26820;SDS011;37186;51.394;5.454;2023-03-03T07:29:50;2.37;;;2.37;;
26820;SDS011;37186;51.394;5.454;2023-03-03T07:32:56;2.20;;;2.20;;
26820;SDS011;37186;51.394;5.454;2023-03-03T07:35:58;2.20;;;2.20;;
26820;SDS011;37186;51.394;5.454;2023-03-03T07:38:59;2.40;;;2.40;;
26820;SDS011;37186;51.394;5.454;2023-03-03T07:42:27;2.23;;;2.23;;
26820;SDS011;37186;51.394;5.454;2023-03-03T07:45:37;2.40;;;2.40;;
26820;SDS011;37186;51.394;5.454;2023-03-03T07:48:38;2.40;;;2.40;;
26820;SDS011;37186;51.394;5.454;2023-03-03T07:51:41;2.40;;;2.40;;
26820;SDS011;37186;51.394;5.454;2023-03-03T07:54:42;2.50;;;2.50;;
26820;SDS011;37186;51.394;5.454;2023-03-03T07:57:44;2.33;;;2.33;;
26820;SDS011;37186;51.394;5.454;2023-03-03T08:04:22;2.30;;;2.30;;
26820;SDS011;37186;51.394;5.454;2023-03-03T08:07:23;2.40;;;2.40;;
26820;SDS011;37186;51.394;5.454;2023-03-03T08:10:34;2.40;;;2.40;;
26820;SDS011;37186;51.394;5.454;2023-03-03T08:13:42;2.40;;;2.40;;
26820;SDS011;37186;51.394;5.454;2023-03-03T08:16:44;2.40;;;2.40;;
26820;SDS011;37186;51.394;5.454;2023-03-03T08:19:44;2.30;;;2.30;;
26820;SDS011;37186;51.394;5.454;2023-03-03T08:22:45;2.40;;;2.40;;
26820;SDS011;37186;51.394;5.454;2023-03-03T08:25:46;2.23;;;2.23;;
26820;SDS011;37186;51.394;5.454;2023-03-03T08:28:49;2.20;;;2.20;;
26820;SDS011;37186;51.394;5.454;2023-03-03T08:31:50;2.40;;;2.40;;
26820;SDS011;37186;51.394;5.454;2023-03-03T08:34:50;2.33;;;2.33;;
26820;SDS011;37186;51.394;5.454;2023-03-03T08:37:51;2.30;;;2.30;;
26820;SDS011;37186;51.394;5.454;2023-03-03T08:40:52;2.30;;;2.30;;
26820;SDS011;37186;51.394;5.454;2023-03-03T08:43:52;2.30;;;2.30;;
26820;SDS011;37186;51.394;5.454;2023-03-03T08:46:53;2.30;;;2.30;;
26820;SDS011;37186;51.394;5.454;2023-03-03T08:49:53;2.40;;;2.40;;
26820;SDS011;37186;51.394;5.454;2023-03-03T08:52:54;2.40;;;2.40;;
26820;SDS011;37186;51.394;5.454;2023-03-03T08:55:55;2.30;;;2.30;;
26820;SDS011;37186;51.394;5.454;2023-03-03T08:58:56;2.50;;;2.50;;
26820;SDS011;37186;51.394;5.454;2023-03-03T09:01:56;2.50;;;2.50;;
26820;SDS011;37186;51.394;5.454;2023-03-03T09:04:57;2.40;;;2.40;;
26820;SDS011;37186;51.394;5.454;2023-03-03T09:07:57;2.40;;;2.40;;
26820;SDS011;37186;51.394;5.454;2023-03-03T09:10:59;2.30;;;2.30;;
26820;SDS011;37186;51.394;5.454;2023-03-03T09:14:05;2.47;;;2.47;;
26820;SDS011;37186;51.394;5.454;2023-03-03T09:17:18;2.43;;;2.43;;
26820;SDS011;37186;51.394;5.454;2023-03-03T09:20:23;2.50;;;2.50;;
26820;SDS011;37186;51.394;5.454;2023-03-03T09:23:35;2.47;;;2.47;;
26820;SDS011;37186;51.394;5.454;2023-03-03T09:26:44;2.60;;;2.60;;
26820;SDS011;37186;51.394;5.454;2023-03-03T09:29:46;2.50;;;2.50;;
26820;SDS011;37186;51.394;5.454;2023-03-03T09:32:46;2.70;;;2.67;;
26820;SDS011;37186;51.394;5.454;2023-03-03T09:35:49;2.70;;;2.70;;
26820;SDS011;37186;51.394;5.454;2023-03-03T09:38:52;2.70;;;2.70;;
26820;SDS011;37186;51.394;5.454;2023-03-03T09:48:24;2.60;;;2.60;;
26820;SDS011;37186;51.394;5.454;2023-03-03T09:51:39;2.50;;;2.50;;
26820;SDS011;37186;51.394;5.454;2023-03-03T09:58:25;2.50;;;2.50;;
26820;SDS011;37186;51.394;5.454;2023-03-03T10:11:08;2.60;;;2.60;;
26820;SDS011;37186;51.394;5.454;2023-03-03T10:17:42;2.53;;;2.53;;
26820;SDS011;37186;51.394;5.454;2023-03-03T10:24:08;2.70;;;2.70;;
26820;SDS011;37186;51.394;5.454;2023-03-03T10:27:28;2.50;;;2.50;;
26820;SDS011;37186;51.394;5.454;2023-03-03T10:44:33;2.60;;;2.60;;
26820;SDS011;37186;51.394;5.454;2023-03-03T10:47:42;2.80;;;2.70;;
26820;SDS011;37186;51.394;5.454;2023-03-03T11:08:00;2.50;;;2.50;;
26820;SDS011;37186;51.394;5.454;2023-03-03T11:14:46;2.47;;;2.47;;
26820;SDS011;37186;51.394;5.454;2023-03-03T11:18:20;2.50;;;2.50;;
26820;SDS011;37186;51.394;5.454;2023-03-03T11:28:10;2.53;;;2.53;;
26820;SDS011;37186;51.394;5.454;2023-03-03T11:39:05;2.50;;;2.50;;
26820;SDS011;37186;51.394;5.454;2023-03-03T11:55:26;2.60;;;2.60;;
26820;SDS011;37186;51.394;5.454;2023-03-03T11:58:38;2.50;;;2.50;;
26820;SDS011;37186;51.394;5.454;2023-03-03T12:01:51;2.40;;;2.40;;
26820;SDS011;37186;51.394;5.454;2023-03-03T12:05:04;2.50;;;2.50;;
26820;SDS011;37186;51.394;5.454;2023-03-03T12:08:49;2.50;;;2.50;;
26820;SDS011;37186;51.394;5.454;2023-03-03T12:12:22;2.40;;;2.40;;
26820;SDS011;37186;51.394;5.454;2023-03-03T12:15:32;2.40;;;2.40;;
26820;SDS011;37186;51.394;5.454;2023-03-03T12:18:54;2.40;;;2.40;;
26820;SDS011;37186;51.394;5.454;2023-03-03T12:22:25;2.30;;;2.30;;
26820;SDS011;37186;51.394;5.454;2023-03-03T12:29:29;2.40;;;2.40;;
26820;SDS011;37186;51.394;5.454;2023-03-03T12:35:43;2.50;;;2.50;;
26820;SDS011;37186;51.394;5.454;2023-03-03T12:48:24;2.57;;;2.57;;
26820;SDS011;37186;51.394;5.454;2023-03-03T12:52:22;2.50;;;2.50;;
26820;SDS011;37186;51.394;5.454;2023-03-03T13:05:39;2.80;;;2.70;;
26820;SDS011;37186;51.394;5.454;2023-03-03T13:08:54;2.60;;;2.60;;
26820;SDS011;37186;51.394;5.454;2023-03-03T13:15:45;2.70;;;2.70;;
26820;SDS011;37186;51.394;5.454;2023-03-03T13:19:03;2.90;;;2.80;;
26820;SDS011;37186;51.394;5.454;2023-03-03T13:22:28;2.57;;;2.57;;
26820;SDS011;37186;51.394;5.454;2023-03-03T13:28:55;2.93;;;2.83;;
26820;SDS011;37186;51.394;5.454;2023-03-03T13:32:22;2.63;;;2.63;;
26820;SDS011;37186;51.394;5.454;2023-03-03T13:35:31;2.70;;;2.67;;
26820;SDS011;37186;51.394;5.454;2023-03-03T13:38:40;2.67;;;2.67;;
26820;SDS011;37186;51.394;5.454;2023-03-03T13:45:01;2.60;;;2.60;;
26820;SDS011;37186;51.394;5.454;2023-03-03T13:54:47;3.00;;;2.90;;
26820;SDS011;37186;51.394;5.454;2023-03-03T14:01:22;2.93;;;2.83;;
26820;SDS011;37186;51.394;5.454;2023-03-03T14:05:01;3.00;;;2.90;;
26820;SDS011;37186;51.394;5.454;2023-03-03T14:11:34;2.90;;;2.80;;
26820;SDS011;37186;51.394;5.454;2023-03-03T14:21:40;2.60;;;2.60;;
26820;SDS011;37186;51.394;5.454;2023-03-03T14:28:09;2.60;;;2.60;;
26820;SDS011;37186;51.394;5.454;2023-03-03T14:31:17;2.53;;;2.53;;
26820;SDS011;37186;51.394;5.454;2023-03-03T14:37:26;2.80;;;2.70;;
26820;SDS011;37186;51.394;5.454;2023-03-03T14:41:02;2.60;;;2.60;;
26820;SDS011;37186;51.394;5.454;2023-03-03T14:47:52;2.97;;;2.87;;
26820;SDS011;37186;51.394;5.454;2023-03-03T14:51:14;2.80;;;2.70;;
26820;SDS011;37186;51.394;5.454;2023-03-03T14:54:26;2.60;;;2.60;;
26820;SDS011;37186;51.394;5.454;2023-03-03T15:00:47;2.73;;;2.70;;
26820;SDS011;37186;51.394;5.454;2023-03-03T15:04:01;2.90;;;2.80;;
26820;SDS011;37186;51.394;5.454;2023-03-03T15:10:39;2.90;;;2.80;;
26820;SDS011;37186;51.394;5.454;2023-03-03T15:13:42;2.90;;;2.80;;
26820;SDS011;37186;51.394;5.454;2023-03-03T15:16:43;3.10;;;3.00;;
26820;SDS011;37186;51.394;5.454;2023-03-03T15:19:49;3.00;;;2.90;;
26820;SDS011;37186;51.394;5.454;2023-03-03T15:32:26;2.97;;;2.87;;
26820;SDS011;37186;51.394;5.454;2023-03-03T15:35:39;3.00;;;2.90;;
26820;SDS011;37186;51.394;5.454;2023-03-03T15:41:59;3.03;;;2.93;;
26820;SDS011;37186;51.394;5.454;2023-03-03T15:55:37;3.10;;;3.00;;
26820;SDS011;37186;51.394;5.454;2023-03-03T16:02:16;3.30;;;3.20;;
26820;SDS011;37186;51.394;5.454;2023-03-03T16:05:22;3.20;;;3.10;;
26820;SDS011;37186;51.394;5.454;2023-03-03T16:18:42;3.80;;;3.70;;
26820;SDS011;37186;51.394;5.454;2023-03-03T16:32:04;3.70;;;3.60;;
26820;SDS011;37186;51.394;5.454;2023-03-03T16:35:25;3.70;;;3.60;;
26820;SDS011;37186;51.394;5.454;2023-03-03T16:38:39;3.73;;;3.63;;
26820;SDS011;37186;51.394;5.454;2023-03-03T16:41:46;3.80;;;3.70;;
26820;SDS011;37186;51.394;5.454;2023-03-03T16:48:12;3.90;;;3.80;;
26820;SDS011;37186;51.394;5.454;2023-03-03T16:51:27;4.00;;;3.90;;
26820;SDS011;37186;51.394;5.454;2023-03-03T16:54:55;3.80;;;3.70;;
26820;SDS011;37186;51.394;5.454;2023-03-03T16:58:20;3.60;;;3.50;;
26820;SDS011;37186;51.394;5.454;2023-03-03T17:01:41;3.73;;;3.63;;
26820;SDS011;37186;51.394;5.454;2023-03-03T17:04:57;3.77;;;3.67;;
26820;SDS011;37186;51.394;5.454;2023-03-03T17:15:06;3.07;;;2.97;;
26820;SDS011;37186;51.394;5.454;2023-03-03T17:18:13;3.27;;;3.17;;
26820;SDS011;37186;51.394;5.454;2023-03-03T17:24:40;3.10;;;3.00;;
26820;SDS011;37186;51.394;5.454;2023-03-03T17:41:14;3.10;;;3.00;;
26820;SDS011;37186;51.394;5.454;2023-03-03T18:14:11;2.97;;;2.87;;
26820;SDS011;37186;51.394;5.454;2023-03-03T18:17:17;3.10;;;3.00;;
26820;SDS011;37186;51.394;5.454;2023-03-03T18:20:42;3.03;;;2.93;;
26820;SDS011;37186;51.394;5.454;2023-03-03T18:27:28;2.87;;;2.77;;
26820;SDS011;37186;51.394;5.454;2023-03-03T18:40:32;2.90;;;2.80;;
26820;SDS011;37186;51.394;5.454;2023-03-03T18:44:06;2.70;;;2.70;;
26820;SDS011;37186;51.394;5.454;2023-03-03T18:47:03;2.90;;;2.80;;
26820;SDS011;37186;51.394;5.454;2023-03-03T18:50:12;3.00;;;2.90;;
26820;SDS011;37186;51.394;5.454;2023-03-03T18:53:16;3.00;;;2.90;;
26820;SDS011;37186;51.394;5.454;2023-03-03T18:59:48;2.90;;;2.80;;
26820;SDS011;37186;51.394;5.454;2023-03-03T19:02:55;2.97;;;2.87;;
26820;SDS011;37186;51.394;5.454;2023-03-03T19:05:58;3.07;;;2.97;;
26820;SDS011;37186;51.394;5.454;2023-03-03T19:09:00;2.80;;;2.73;;
26820;SDS011;37186;51.394;5.454;2023-03-03T19:12:02;2.77;;;2.70;;
26820;SDS011;37186;51.394;5.454;2023-03-03T19:21:47;2.60;;;2.60;;
26820;SDS011;37186;51.394;5.454;2023-03-03T19:28:44;2.53;;;2.53;;
26820;SDS011;37186;51.394;5.454;2023-03-03T19:35:29;2.57;;;2.57;;
26820;SDS011;37186;51.394;5.454;2023-03-03T19:49:04;2.60;;;2.60;;
26820;SDS011;37186;51.394;5.454;2023-03-03T19:52:24;2.50;;;2.50;;
26820;SDS011;37186;51.394;5.454;2023-03-03T19:58:54;2.57;;;2.57;;
26820;SDS011;37186;51.394;5.454;2023-03-03T20:02:13;2.70;;;2.70;;
26820;SDS011;37186;51.394;5.454;2023-03-03T20:05:41;2.70;;;2.70;;
26820;SDS011;37186;51.394;5.454;2023-03-03T20:15:23;2.40;;;2.40;;
26820;SDS011;37186;51.394;5.454;2023-03-03T20:25:35;2.50;;;2.50;;
26820;SDS011;37186;51.394;5.454;2023-03-03T20:28:46;2.53;;;2.53;;
26820;SDS011;37186;51.394;5.454;2023-03-03T20:35:14;2.70;;;2.70;;
26820;SDS011;37186;51.394;5.454;2023-03-03T20:45:01;2.83;;;2.73;;
26820;SDS011;37186;51.394;5.454;2023-03-03T20:48:12;2.63;;;2.63;;
26820;SDS011;37186;51.394;5.454;2023-03-03T20:55:10;2.50;;;2.50;;
26820;SDS011;37186;51.394;5.454;2023-03-03T20:58:58;2.50;;;2.50;;
26820;SDS011;37186;51.394;5.454;2023-03-03T21:01:42;2.53;;;2.53;;
26820;SDS011;37186;51.394;5.454;2023-03-03T21:05:17;2.60;;;2.60;;
26820;SDS011;37186;51.394;5.454;2023-03-03T21:08:30;2.50;;;2.50;;
26820;SDS011;37186;51.394;5.454;2023-03-03T21:11:44;2.60;;;2.60;;
26820;SDS011;37186;51.394;5.454;2023-03-03T21:14:45;2.90;;;2.80;;
26820;SDS011;37186;51.394;5.454;2023-03-03T21:17:59;2.53;;;2.53;;
26820;SDS011;37186;51.394;5.454;2023-03-03T21:21:17;2.80;;;2.70;;
26820;SDS011;37186;51.394;5.454;2023-03-03T21:24:18;2.60;;;2.60;;
26820;SDS011;37186;51.394;5.454;2023-03-03T21:27:25;2.60;;;2.60;;
26820;SDS011;37186;51.394;5.454;2023-03-03T21:30:30;2.57;;;2.57;;
26820;SDS011;37186;51.394;5.454;2023-03-03T21:39:42;2.67;;;2.67;;
26820;SDS011;37186;51.394;5.454;2023-03-03T21:42:43;2.50;;;2.50;;
26820;SDS011;37186;51.394;5.454;2023-03-03T21:45:44;2.50;;;2.50;;
26820;SDS011;37186;51.394;5.454;2023-03-03T21:48:45;2.50;;;2.50;;
26820;SDS011;37186;51.394;5.454;2023-03-03T21:51:46;2.60;;;2.60;;
26820;SDS011;37186;51.394;5.454;2023-03-03T21:54:47;2.60;;;2.60;;
26820;SDS011;37186;51.394;5.454;2023-03-03T21:57:49;2.50;;;2.50;;
26820;SDS011;37186;51.394;5.454;2023-03-03T22:00:50;2.60;;;2.60;;
26820;SDS011;37186;51.394;5.454;2023-03-03T22:03:50;2.77;;;2.67;;
26820;SDS011;37186;51.394;5.454;2023-03-03T22:06:51;2.60;;;2.60;;
26820;SDS011;37186;51.394;5.454;2023-03-03T22:09:51;2.53;;;2.53;;
26820;SDS011;37186;51.394;5.454;2023-03-03T22:12:52;2.60;;;2.60;;
26820;SDS011;37186;51.394;5.454;2023-03-03T22:15:52;2.60;;;2.60;;
26820;SDS011;37186;51.394;5.454;2023-03-03T22:18:54;2.50;;;2.50;;
26820;SDS011;37186;51.394;5.454;2023-03-03T22:21:54;2.50;;;2.50;;
26820;SDS011;37186;51.394;5.454;2023-03-03T22:24:55;2.70;;;2.70;;
26820;SDS011;37186;51.394;5.454;2023-03-03T22:27:55;2.60;;;2.60;;
26820;SDS011;37186;51.394;5.454;2023-03-03T22:30:56;2.63;;;2.63;;
26820;SDS011;37186;51.394;5.454;2023-03-03T22:33:56;2.50;;;2.50;;
26820;SDS011;37186;51.394;5.454;2023-03-03T22:36:57;2.40;;;2.40;;
26820;SDS011;37186;51.394;5.454;2023-03-03T22:39:57;2.50;;;2.50;;
26820;SDS011;37186;51.394;5.454;2023-03-03T22:42:58;2.50;;;2.50;;
26820;SDS011;37186;51.394;5.454;2023-03-03T22:45:59;2.60;;;2.60;;
26820;SDS011;37186;51.394;5.454;2023-03-03T22:49:00;2.57;;;2.57;;
26820;SDS011;37186;51.394;5.454;2023-03-03T22:52:00;2.40;;;2.40;;
26820;SDS011;37186;51.394;5.454;2023-03-03T22:55:01;2.80;;;2.70;;
26820;SDS011;37186;51.394;5.454;2023-03-03T22:58:03;2.53;;;2.53;;
26820;SDS011;37186;51.394;5.454;2023-03-03T23:01:04;2.60;;;2.60;;
26820;SDS011;37186;51.394;5.454;2023-03-03T23:04:05;2.57;;;2.57;;
26820;SDS011;37186;51.394;5.454;2023-03-03T23:07:05;2.40;;;2.40;;
26820;SDS011;37186;51.394;5.454;2023-03-03T23:10:06;2.50;;;2.50;;
26820;SDS011;37186;51.394;5.454;2023-03-03T23:13:08;2.60;;;2.60;;
26820;SDS011;37186;51.394;5.454;2023-03-03T23:16:08;2.53;;;2.53;;
26820;SDS011;37186;51.394;5.454;2023-03-03T23:19:09;2.70;;;2.70;;
26820;SDS011;37186;51.394;5.454;2023-03-03T23:22:10;2.60;;;2.60;;
26820;SDS011;37186;51.394;5.454;2023-03-03T23:25:14;2.50;;;2.50;;
26820;SDS011;37186;51.394;5.454;2023-03-03T23:28:15;2.60;;;2.60;;
26820;SDS011;37186;51.394;5.454;2023-03-03T23:31:15;2.50;;;2.50;;
26820;SDS011;37186;51.394;5.454;2023-03-03T23:34:16;2.60;;;2.60;;
26820;SDS011;37186;51.394;5.454;2023-03-03T23:37:16;2.70;;;2.70;;
26820;SDS011;37186;51.394;5.454;2023-03-03T23:40:17;2.50;;;2.50;;
26820;SDS011;37186;51.394;5.454;2023-03-03T23:43:18;2.50;;;2.50;;
26820;SDS011;37186;51.394;5.454;2023-03-03T23:46:18;2.50;;;2.50;;
26820;SDS011;37186;51.394;5.454;2023-03-03T23:49:19;2.70;;;2.67;;
26820;SDS011;37186;51.394;5.454;2023-03-03T23:52:19;2.60;;;2.60;;
26820;SDS011;37186;51.394;5.454;2023-03-03T23:55:20;2.50;;;2.50;;
26820;SDS011;37186;51.394;5.454;2023-03-03T23:58:20;2.50;;;2.50;;
